Time;durP1;ratioP1;P1;durP2;ratioP2;P2;SDS_P1;SDS_P2;PMS_P1;PMS_P2;Temp;Humidity;BMP_temperature;BMP_pressure;BME280_temperature;BME280_humidity;BME280_pressure;Samples;Min_cycle;Max_cycle;Signal;HPM_P1;HPM_P2
2021/04/02 00:00:16;;;;;;;4.93;2.88;;;;;;;11.75;29.20;102025.06;3618059;39;20082;-77
2021/04/02 00:02:43;;;;;;;4.72;2.90;;;;;;;11.69;29.02;102025.53;3624431;39;20172;-77
2021/04/02 00:05:13;;;;;;;5.53;3.25;;;;;;;11.67;29.18;102025.63;3616520;39;20142;-77
2021/04/02 00:07:42;;;;;;;5.25;3.05;;;;;;;11.63;28.98;102021.34;3625621;39;20166;-77
2021/04/02 00:10:12;;;;;;;5.10;2.80;;;;;;;11.61;29.10;102017.81;3625741;39;20149;-78
2021/04/02 00:12:45;;;;;;;4.70;2.70;;;;;;;11.58;29.28;102021.69;3623213;39;20094;-77
2021/04/02 00:15:14;;;;;;;4.57;2.40;;;;;;;11.57;29.11;102027.28;3607911;39;20122;-77
2021/04/02 00:18:00;;;;;;;4.55;2.78;;;;;;;11.55;29.69;102029.22;3619869;39;20083;-77
2021/04/02 00:20:27;;;;;;;4.20;2.83;;;;;;;11.52;29.22;102024.88;3617047;39;20387;-77
2021/04/02 00:22:55;;;;;;;5.47;2.65;;;;;;;11.53;29.23;102025.72;3621897;39;20129;-77
2021/04/02 00:25:22;;;;;;;4.25;2.90;;;;;;;11.52;29.31;102026.75;3620819;39;20161;-77
2021/04/02 00:27:49;;;;;;;4.93;2.85;;;;;;;11.52;29.35;102029.47;3625981;39;20059;-77
2021/04/02 00:30:20;;;;;;;4.00;2.55;;;;;;;11.54;29.36;102022.88;3625840;39;20095;-77
2021/04/02 00:32:47;;;;;;;5.30;2.63;;;;;;;11.53;29.13;102023.84;3623109;39;20378;-77
2021/04/02 00:35:16;;;;;;;7.28;3.20;;;;;;;11.55;29.59;102015.53;3622328;39;20085;-77
2021/04/02 00:38:30;;;;;;;4.82;2.83;;;;;;;11.55;29.71;102013.66;3623035;39;20059;-77
2021/04/02 00:41:00;;;;;;;5.50;2.97;;;;;;;11.54;29.38;102022.00;3603748;39;20088;-77
2021/04/02 00:43:35;;;;;;;5.65;3.00;;;;;;;11.55;29.57;102012.78;3617166;39;20067;-77
2021/04/02 00:46:03;;;;;;;5.78;3.60;;;;;;;11.55;29.47;102012.78;3625078;39;20090;-77
2021/04/02 00:48:31;;;;;;;5.30;2.88;;;;;;;11.55;29.36;102010.06;3620064;39;20396;-77
2021/04/02 00:51:01;;;;;;;5.95;3.10;;;;;;;11.58;29.54;102007.97;3618190;39;20438;-77
2021/04/02 00:53:32;;;;;;;5.15;2.92;;;;;;;11.57;29.47;102008.97;3619091;39;20064;-77
2021/04/02 00:56:00;;;;;;;5.55;2.90;;;;;;;11.56;29.60;102009.94;3605659;39;20060;-77
2021/04/02 00:58:32;;;;;;;5.05;3.13;;;;;;;11.57;29.35;102008.97;3606524;39;20071;-77
2021/04/02 01:00:59;;;;;;;5.82;2.45;;;;;;;11.55;29.33;102005.44;3614390;39;20395;-77
2021/04/02 01:03:29;;;;;;;6.00;2.72;;;;;;;11.57;29.40;102000.75;3607171;39;20060;-78
2021/04/02 01:06:01;;;;;;;5.10;2.75;;;;;;;11.58;29.71;102001.63;3607253;39;20158;-77
2021/04/02 01:08:32;;;;;;;4.28;2.80;;;;;;;11.56;29.55;102009.94;3609617;39;20081;-77
2021/04/02 01:11:04;;;;;;;4.97;3.30;;;;;;;11.56;29.38;102006.34;3618119;39;20079;-77
2021/04/02 01:13:36;;;;;;;6.30;2.92;;;;;;;11.56;29.52;102011.81;3610445;39;20071;-77
2021/04/02 01:16:08;;;;;;;5.97;3.38;;;;;;;11.53;29.67;102003.78;3607383;39;20430;-77
2021/04/02 01:18:39;;;;;;;6.53;3.23;;;;;;;11.49;29.67;102007.75;3619295;39;20090;-77
2021/04/02 01:21:15;;;;;;;6.30;3.40;;;;;;;11.50;29.60;102012.25;3610219;39;20067;-77
2021/04/02 01:24:00;;;;;;;5.45;2.95;;;;;;;11.47;29.78;102020.69;3614596;39;20089;-77
2021/04/02 01:26:49;;;;;;;7.05;3.47;;;;;;;11.43;29.96;102022.78;3605278;39;20168;-78
2021/04/02 01:29:23;;;;;;;5.57;3.42;;;;;;;11.39;29.94;102021.25;3616663;39;20164;-77
2021/04/02 01:31:55;;;;;;;5.20;2.95;;;;;;;11.35;29.39;102019.72;3610286;39;20055;-77
2021/04/02 01:34:30;;;;;;;5.68;2.92;;;;;;;11.32;29.81;102022.66;3616137;39;20399;-77
2021/04/02 01:37:06;;;;;;;5.80;3.30;;;;;;;11.28;29.91;102021.13;3613191;39;20105;-77
2021/04/02 01:39:37;;;;;;;6.90;3.05;;;;;;;11.23;29.74;102021.47;3620591;39;20096;-77
2021/04/02 01:42:07;;;;;;;5.22;3.05;;;;;;;11.22;29.67;102025.19;3616483;39;20069;-77
2021/04/02 01:44:39;;;;;;;6.25;3.30;;;;;;;11.21;29.96;102022.53;3619027;39;20110;-77
2021/04/02 01:47:09;;;;;;;5.07;3.03;;;;;;;11.15;29.80;102012.91;3617078;39;20423;-78
2021/04/02 01:49:38;;;;;;;5.88;3.03;;;;;;;11.16;29.74;102009.19;3607914;39;20110;-77
2021/04/02 01:52:08;;;;;;;5.60;3.35;;;;;;;11.15;30.07;102010.16;3615930;39;20086;-78
2021/04/02 01:54:37;;;;;;;5.93;3.03;;;;;;;11.13;29.80;102000.28;3615429;39;20069;-77
2021/04/02 01:57:08;;;;;;;6.32;3.10;;;;;;;11.13;30.01;102012.13;3603284;39;20075;-77
2021/04/02 01:59:40;;;;;;;7.05;3.70;;;;;;;11.13;30.00;102020.34;3624729;39;20059;-78
2021/04/02 02:02:14;;;;;;;5.40;2.92;;;;;;;11.13;29.88;102016.72;3610699;39;20288;-77
2021/04/02 02:04:42;;;;;;;6.97;3.33;;;;;;;11.12;30.10;102015.84;3613454;39;20426;-78
2021/04/02 02:07:11;;;;;;;5.72;3.00;;;;;;;11.13;30.07;102005.78;3614523;39;20070;-77
2021/04/02 02:09:50;;;;;;;5.63;3.20;;;;;;;11.14;30.13;102015.75;3607848;39;20067;-77
2021/04/02 02:12:29;;;;;;;4.93;3.20;;;;;;;11.15;30.33;102015.66;3616222;39;20403;-78
2021/04/02 02:15:08;;;;;;;5.68;3.28;;;;;;;11.17;30.31;102015.53;3616694;39;20087;-77
2021/04/02 02:17:37;;;;;;;5.57;3.45;;;;;;;11.16;30.15;102014.66;3617437;39;20173;-77
2021/04/02 02:20:08;;;;;;;5.68;3.55;;;;;;;11.17;30.08;102010.06;3624250;39;20071;-78
2021/04/02 02:22:38;;;;;;;5.70;3.25;;;;;;;11.18;30.29;102012.69;3609631;39;20116;-78
2021/04/02 02:25:12;;;;;;;6.13;3.42;;;;;;;11.18;30.39;102017.31;3613395;39;20066;-77
2021/04/02 02:27:45;;;;;;;6.72;3.58;;;;;;;11.17;30.17;102010.94;3609625;39;20086;-78
2021/04/02 02:30:22;;;;;;;5.43;3.13;;;;;;;11.19;30.38;102019.06;3616543;39;20137;-77
2021/04/02 02:32:57;;;;;;;6.20;3.25;;;;;;;11.19;29.98;102017.19;3608924;39;20074;-77
2021/04/02 02:35:27;;;;;;;6.18;3.15;;;;;;;11.19;30.24;102014.47;3610484;39;20063;-77
2021/04/02 02:37:57;;;;;;;5.18;3.40;;;;;;;11.19;30.26;102019.94;3610521;39;20098;-77
2021/04/02 02:40:29;;;;;;;6.43;3.40;;;;;;;11.22;30.54;102024.28;3608914;39;20079;-77
2021/04/02 02:42:58;;;;;;;6.03;3.25;;;;;;;11.21;30.29;102017.06;3622130;39;20082;-78
2021/04/02 02:45:30;;;;;;;6.72;3.35;;;;;;;11.22;30.36;102019.69;3612472;39;20055;-78
2021/04/02 02:47:59;;;;;;;5.50;3.20;;;;;;;11.18;30.33;102012.69;3619574;39;20067;-78
2021/04/02 02:50:33;;;;;;;5.47;3.60;;;;;;;11.21;30.26;102022.53;3615184;39;20165;-78
2021/04/02 02:53:06;;;;;;;6.13;3.03;;;;;;;11.18;30.35;102014.56;3625408;39;20069;-77
2021/04/02 02:55:38;;;;;;;5.65;3.25;;;;;;;11.21;30.34;102017.06;3610624;39;20736;-78
2021/04/02 02:58:08;;;;;;;5.03;2.90;;;;;;;11.19;30.28;102013.59;3598628;39;20047;-77
2021/04/02 03:00:44;;;;;;;5.78;3.00;;;;;;;11.21;30.51;102017.94;3612334;39;20431;-78
2021/04/02 03:03:15;;;;;;;5.30;2.80;;;;;;;11.19;30.31;102013.59;3617141;39;20082;-78
2021/04/02 03:05:49;;;;;;;5.20;3.22;;;;;;;11.19;30.41;102006.25;3616667;39;20077;-78
2021/04/02 03:08:21;;;;;;;;;;;;;;;10.93;30.82;102006.31;3609411;39;20114;-78
2021/04/02 03:10:51;;;;;;;5.68;2.83;;;;;;;11.15;30.30;102012.03;3615774;39;19927;-78
2021/04/02 03:13:21;;;;;;;6.68;3.20;;;;;;;11.17;29.95;102005.47;3606816;39;20083;-78
2021/04/02 03:15:51;;;;;;;4.28;2.92;;;;;;;11.18;30.41;102009.09;3603063;39;20051;-78
2021/04/02 03:18:19;;;;;;;4.65;3.13;;;;;;;11.16;30.36;102000.09;3614824;39;20164;-78
2021/04/02 03:20:50;;;;;;;5.88;3.60;;;;;;;11.13;30.33;102001.19;3605967;39;20106;-77
2021/04/02 03:23:21;;;;;;;5.53;3.35;;;;;;;11.13;30.26;102003.91;3610945;39;20063;-77
2021/04/02 03:25:53;;;;;;;5.28;3.00;;;;;;;11.08;30.31;101994.28;3613720;39;20067;-78
2021/04/02 03:28:21;;;;;;;4.70;3.10;;;;;;;11.07;30.30;101993.41;3607351;39;20154;-77
2021/04/02 03:30:55;;;;;;;;;;;;;;;10.78;30.69;101997.28;3612781;39;20138;-77
2021/04/02 03:33:32;;;;;;;4.10;2.45;;;;;;;10.97;30.27;102005.09;3614562;39;19958;-78
2021/04/02 03:36:21;;;;;;;5.05;3.05;;;;;;;10.95;30.17;102004.34;3617020;39;20144;-78
2021/04/02 03:38:51;;;;;;;5.70;3.15;;;;;;;10.94;30.42;102006.22;3608834;39;20078;-78
2021/04/02 03:41:30;;;;;;;5.70;2.95;;;;;;;10.92;30.64;102007.28;3625446;39;20183;-78
2021/04/02 03:44:04;;;;;;;4.53;3.00;;;;;;;10.89;30.21;102003.78;3606882;39;20063;-78
2021/04/02 03:46:37;;;;;;;4.78;2.90;;;;;;;10.91;30.75;102009.16;3597920;39;20093;-78
2021/04/02 03:49:08;;;;;;;5.32;3.05;;;;;;;10.85;30.66;102009.59;3616190;39;20078;-78
2021/04/02 03:51:41;;;;;;;5.20;2.80;;;;;;;10.85;30.58;102007.72;3606556;39;20547;-78
2021/04/02 03:54:12;;;;;;;5.68;3.33;;;;;;;10.84;30.61;102011.44;3621896;39;20379;-78
2021/04/02 03:56:44;;;;;;;5.47;3.20;;;;;;;10.84;30.81;102007.81;3613023;39;20482;-78
2021/04/02 03:59:16;;;;;;;6.20;3.40;;;;;;;10.79;30.54;102008.09;3611364;39;20070;-78
2021/04/02 04:01:54;;;;;;;5.43;3.30;;;;;;;10.80;30.89;102019.91;3609551;39;20818;-77
2021/04/02 04:04:26;;;;;;;6.30;3.35;;;;;;;10.77;30.87;102017.41;3612747;39;20078;-78
2021/04/02 04:06:58;;;;;;;5.88;3.17;;;;;;;10.74;30.90;102023.09;3614145;39;20107;-78
2021/04/02 04:09:28;;;;;;;6.15;3.53;;;;;;;10.68;30.83;102015.31;3600155;39;20138;-78
2021/04/02 04:12:04;;;;;;;5.80;3.33;;;;;;;10.66;30.70;102015.41;3613551;39;20079;-77
2021/04/02 04:14:45;;;;;;;5.45;3.25;;;;;;;10.64;30.85;102020.09;3614112;39;20411;-77
2021/04/02 04:17:17;;;;;;;6.70;3.17;;;;;;;10.63;31.04;102025.66;3609237;39;20071;-77
2021/04/02 04:20:06;;;;;;;6.05;3.22;;;;;;;10.61;31.35;102027.66;3611651;39;20403;-77
2021/04/02 04:22:41;;;;;;;6.50;3.35;;;;;;;10.55;30.99;102020.72;3617153;39;20113;-77
2021/04/02 04:25:11;;;;;;;6.72;4.15;;;;;;;10.54;30.71;102025.31;3613511;39;20408;-77
2021/04/02 04:27:43;;;;;;;6.65;4.35;;;;;;;10.52;31.05;102030.03;3621250;39;20075;-78
2021/04/02 04:30:12;;;;;;;7.50;4.32;;;;;;;10.50;31.10;102025.66;3622457;39;20059;-78
2021/04/02 04:32:41;;;;;;;7.35;4.18;;;;;;;10.49;31.21;102018.41;3622992;39;20055;-78
2021/04/02 04:35:12;;;;;;;5.82;4.10;;;;;;;10.48;31.31;102033.94;3607618;39;20063;-77
2021/04/02 04:37:41;;;;;;;7.00;3.92;;;;;;;10.47;31.35;102026.72;3623353;39;20059;-78
2021/04/02 04:40:12;;;;;;;7.60;3.88;;;;;;;10.45;31.20;102025.94;3620795;39;20167;-78
2021/04/02 04:42:41;;;;;;;7.72;4.70;;;;;;;10.43;31.35;102022.44;3621352;39;20070;-77
2021/04/02 04:45:12;;;;;;;7.00;4.63;;;;;;;10.41;31.24;102027.13;3600723;39;20071;-78
2021/04/02 04:47:39;;;;;;;9.30;5.00;;;;;;;10.40;31.50;102032.72;3625123;39;20425;-78
2021/04/02 04:50:35;;;;;;;7.40;4.75;;;;;;;10.36;31.83;102029.31;3619053;39;20143;-77
2021/04/02 04:53:09;;;;;;;6.22;4.47;;;;;;;10.36;31.82;102026.59;3611936;39;20074;-77
2021/04/02 04:55:39;;;;;;;8.02;5.22;;;;;;;10.34;31.35;102027.66;3625486;39;20147;-77
2021/04/02 04:58:12;;;;;;;7.72;4.93;;;;;;;10.34;31.47;102041.34;3620179;39;20431;-77
2021/04/02 05:00:41;;;;;;;8.35;5.18;;;;;;;10.31;31.66;102034.19;3622167;39;20055;-78
2021/04/02 05:03:11;;;;;;;7.70;4.90;;;;;;;10.31;31.49;102045.13;3618194;39;20065;-77
2021/04/02 05:05:43;;;;;;;8.35;5.35;;;;;;;10.31;31.67;102044.25;3625503;39;20199;-77
2021/04/02 05:08:15;;;;;;;13.02;6.72;;;;;;;10.28;32.21;102039.00;3625498;39;20166;-77
2021/04/02 05:10:46;;;;;;;14.02;8.45;;;;;;;10.24;31.58;102045.66;3622836;39;20079;-78
2021/04/02 05:13:15;;;;;;;15.15;8.35;;;;;;;10.21;31.57;102043.09;3613092;39;20084;-77
2021/04/02 05:15:43;;;;;;;13.80;7.28;;;;;;;10.18;31.54;102043.31;3625525;39;20174;-77
2021/04/02 05:18:16;;;;;;;14.23;7.60;;;;;;;10.12;31.56;102040.00;3618692;39;20055;-78
2021/04/02 05:20:46;;;;;;;14.20;7.53;;;;;;;10.12;32.22;102050.94;3623882;39;20309;-77
2021/04/02 05:23:16;;;;;;;13.80;7.30;;;;;;;10.11;32.10;102040.13;3626481;39;20163;-77
2021/04/02 05:25:44;;;;;;;16.13;8.20;;;;;;;10.07;31.79;102052.22;3603002;39;20087;-77
2021/04/02 05:28:13;;;;;;;16.52;8.93;;;;;;;10.09;31.91;102051.16;3617430;39;20091;-78
2021/04/02 05:30:40;;;;;;;16.00;8.60;;;;;;;10.08;31.88;102043.94;3624668;39;20084;-77
2021/04/02 05:33:08;;;;;;;15.98;7.70;;;;;;;10.07;31.97;102042.16;3616877;39;20405;-77
2021/04/02 05:35:36;;;;;;;16.85;7.57;;;;;;;10.07;32.01;102046.75;3621184;39;20155;-77
2021/04/02 05:38:11;;;;;;;14.55;7.72;;;;;;;10.06;32.41;102051.34;3603395;39;20401;-77
2021/04/02 05:41:07;;;;;;;15.20;7.33;;;;;;;10.06;32.28;102059.53;3610236;39;20067;-77
2021/04/02 05:43:37;;;;;;;15.90;8.43;;;;;;;10.10;32.16;102054.78;3622203;39;20059;-76
2021/04/02 05:46:05;;;;;;;15.43;8.18;;;;;;;10.09;32.14;102055.75;3611659;39;20067;-77
2021/04/02 05:48:41;;;;;;;16.92;8.90;;;;;;;10.10;32.03;102065.72;3612348;39;20078;-77
2021/04/02 05:51:09;;;;;;;16.98;9.15;;;;;;;10.08;32.02;102068.53;3619127;39;20079;-77
2021/04/02 05:53:39;;;;;;;17.17;9.45;;;;;;;10.10;32.16;102062.97;3620647;39;20421;-77
2021/04/02 05:56:07;;;;;;;18.55;9.00;;;;;;;10.08;32.15;102065.81;3623888;39;20063;-77
2021/04/02 05:58:35;;;;;;;22.83;10.70;;;;;;;10.08;32.11;102070.38;3607424;39;20075;-77
2021/04/02 06:01:03;;;;;;;19.05;10.10;;;;;;;10.04;32.13;102061.50;3628180;39;20066;-77
2021/04/02 06:03:30;;;;;;;19.25;10.13;;;;;;;10.02;32.03;102066.22;3617481;39;20059;-77
2021/04/02 06:05:58;;;;;;;17.17;8.95;;;;;;;10.01;32.07;102072.66;3620038;39;20319;-77
2021/04/02 06:08:27;;;;;;;17.75;8.82;;;;;;;9.99;32.05;102077.34;3612873;39;20099;-76
2021/04/02 06:10:56;;;;;;;19.75;10.15;;;;;;;9.98;32.23;102080.16;3619416;39;20098;-76
2021/04/02 06:13:23;;;;;;;19.40;10.65;;;;;;;9.97;32.19;102081.13;3613640;39;20074;-77
2021/04/02 06:15:52;;;;;;;21.30;10.52;;;;;;;9.96;32.16;102073.94;3616736;39;20371;-77
2021/04/02 06:18:23;;;;;;;17.73;9.13;;;;;;;9.95;32.62;102083.09;3617343;39;20154;-77
2021/04/02 06:20:55;;;;;;;19.50;10.05;;;;;;;9.92;32.82;102077.81;3621445;39;20083;-77
2021/04/02 06:23:24;;;;;;;19.23;10.70;;;;;;;9.88;32.18;102082.59;3620551;39;20079;-77
2021/04/02 06:25:53;;;;;;;21.95;12.20;;;;;;;9.86;32.66;102079.09;3619994;39;20499;-77
2021/04/02 06:28:23;;;;;;;21.85;11.52;;;;;;;9.86;32.67;102076.38;3616262;39;20280;-76
2021/04/02 06:30:59;;;;;;;22.02;11.88;;;;;;;9.86;32.94;102076.38;3609407;39;20067;-76
2021/04/02 06:33:38;;;;;;;21.10;12.40;;;;;;;9.83;32.59;102076.56;3622593;39;20311;-76
2021/04/02 06:36:14;;;;;;;18.90;10.82;;;;;;;9.83;32.50;102079.28;3617236;39;20146;-77
2021/04/02 06:38:44;;;;;;;22.85;12.15;;;;;;;9.82;32.92;102084.84;3609572;39;20078;-77
2021/04/02 06:41:13;;;;;;;19.90;11.40;;;;;;;9.80;32.62;102081.34;3611688;39;20055;-78
2021/04/02 06:43:44;;;;;;;20.55;11.70;;;;;;;9.79;32.73;102076.88;3613716;39;20102;-78
2021/04/02 06:46:13;;;;;;;17.40;10.40;;;;;;;9.77;32.64;102074.22;3618532;39;20087;-77
2021/04/02 06:48:41;;;;;;;21.98;11.20;;;;;;;9.75;32.88;102077.06;3619608;39;20295;-77
2021/04/02 06:51:12;;;;;;;21.17;11.60;;;;;;;9.78;33.32;102080.56;3622181;39;20471;-77
2021/04/02 06:53:44;;;;;;;20.42;11.70;;;;;;;9.75;32.95;102081.63;3620708;39;20144;-78
2021/04/02 06:56:12;;;;;;;18.63;9.93;;;;;;;9.76;33.03;102083.41;3621973;39;20182;-77
2021/04/02 06:58:43;;;;;;;16.52;9.18;;;;;;;9.77;33.12;102085.16;3615974;39;20082;-76
2021/04/02 07:01:14;;;;;;;18.95;10.70;;;;;;;9.80;33.48;102089.53;3616124;39;20073;-77
2021/04/02 07:03:43;;;;;;;18.80;10.25;;;;;;;9.81;33.43;102078.50;3612166;39;20061;-78
2021/04/02 07:06:18;;;;;;;16.50;10.13;;;;;;;9.84;33.38;102085.63;3607357;39;20055;-78
2021/04/02 07:08:48;;;;;;;20.65;11.02;;;;;;;9.84;33.28;102089.25;3625817;39;20066;-78
2021/04/02 07:11:17;;;;;;;18.50;10.05;;;;;;;9.88;33.44;102095.38;3622488;39;20075;-77
2021/04/02 07:13:50;;;;;;;17.08;9.25;;;;;;;9.93;33.69;102096.88;3617619;39;20176;-77
2021/04/02 07:16:20;;;;;;;16.65;9.80;;;;;;;9.94;33.67;102095.91;3612453;39;20155;-77
2021/04/02 07:18:48;;;;;;;16.13;9.32;;;;;;;9.97;33.50;102097.53;3617340;39;20086;-77
2021/04/02 07:21:17;;;;;;;14.98;8.98;;;;;;;9.99;33.09;102107.41;3606591;39;20414;-77
2021/04/02 07:23:44;;;;;;;13.57;8.20;;;;;;;9.99;32.93;102101.94;3607681;39;20158;-78
2021/04/02 07:26:14;;;;;;;14.50;8.70;;;;;;;10.00;33.39;102102.81;3619382;39;20059;-78
2021/04/02 07:28:45;;;;;;;12.18;7.75;;;;;;;10.03;33.35;102105.38;3610077;39;20075;-77
2021/04/02 07:31:14;;;;;;;9.93;6.78;;;;;;;10.02;33.09;102109.06;3629366;39;20393;-77
2021/04/02 07:33:44;;;;;;;9.57;5.18;;;;;;;10.03;33.25;102110.84;3617048;39;20050;-77
2021/04/02 07:36:21;;;;;;;6.68;3.95;;;;;;;10.00;33.13;102122.84;3617500;39;20059;-78
2021/04/02 07:38:52;;;;;;;7.70;3.60;;;;;;;10.01;32.97;102121.84;3622693;39;20066;-78
2021/04/02 07:41:21;;;;;;;6.30;3.40;;;;;;;9.98;32.87;102119.31;3622941;39;20102;-77
2021/04/02 07:43:51;;;;;;;4.57;3.03;;;;;;;9.97;33.01;102113.94;3615155;39;20392;-77
2021/04/02 07:46:25;;;;;;;6.82;3.63;;;;;;;9.92;33.30;102118.81;3623594;39;20075;-77
2021/04/02 07:49:00;;;;;;;6.22;3.38;;;;;;;9.89;33.30;102121.75;3608339;39;20079;-77
2021/04/02 07:51:41;;;;;;;5.22;3.30;;;;;;;9.81;33.47;102122.22;3606562;39;20648;-77
2021/04/02 07:54:14;;;;;;;4.85;3.30;;;;;;;9.72;33.28;102131.00;3615503;39;20066;-78
2021/04/02 07:56:46;;;;;;;5.43;3.05;;;;;;;9.66;33.31;102128.63;3616688;39;20062;-77
2021/04/02 07:59:14;;;;;;;5.43;2.75;;;;;;;9.59;32.97;102122.69;3610016;39;20148;-77
2021/04/02 08:02:10;;;;;;;8.57;3.85;;;;;;;9.52;33.83;102120.44;3626364;39;20071;-77
2021/04/02 08:04:39;;;;;;;7.25;3.38;;;;;;;9.47;33.15;102117.06;3623261;39;20067;-77
2021/04/02 08:07:13;;;;;;;6.05;3.15;;;;;;;9.45;33.81;102110.84;3606058;39;20071;-77
2021/04/02 08:09:43;;;;;;;4.40;2.88;;;;;;;9.40;33.59;102116.59;3597822;39;20164;-78
2021/04/02 08:12:35;;;;;;;6.50;3.00;;;;;;;9.34;33.44;102125.16;3620325;39;20465;-78
2021/04/02 08:15:08;;;;;;;6.75;3.30;;;;;;;9.35;33.92;102126.94;3620639;39;20085;-77
2021/04/02 08:17:38;;;;;;;7.10;3.92;;;;;;;9.31;33.95;102130.78;3608186;39;20159;-77
2021/04/02 08:20:11;;;;;;;7.00;3.70;;;;;;;9.31;34.33;102128.06;3614295;39;20071;-77
2021/04/02 08:22:41;;;;;;;6.60;3.88;;;;;;;9.28;33.88;102131.88;3619623;39;20062;-77
2021/04/02 08:25:10;;;;;;;7.65;3.67;;;;;;;9.30;34.08;102129.91;3616607;39;20067;-77
2021/04/02 08:27:49;;;;;;;7.03;3.85;;;;;;;9.29;33.93;102135.50;3619118;39;20090;-77
2021/04/02 08:30:18;;;;;;;5.85;3.25;;;;;;;9.32;34.13;102140.75;3611189;39;20307;-77
2021/04/02 08:32:48;;;;;;;7.20;3.60;;;;;;;9.35;34.22;102143.31;3625108;39;20059;-77
2021/04/02 08:35:18;;;;;;;7.88;3.35;;;;;;;9.37;34.24;102150.44;3610752;39;20158;-74
2021/04/02 08:38:07;;;;;;;7.57;3.88;;;;;;;9.40;35.14;102152.09;3606042;39;20071;-73
2021/04/02 08:40:38;;;;;;;6.32;3.53;;;;;;;9.40;34.46;102158.44;3615179;39;20092;-79
2021/04/02 08:43:07;;;;;;;6.30;3.78;;;;;;;9.47;34.39;102148.00;3606574;39;20073;-80
2021/04/02 08:45:39;;;;;;;6.68;3.67;;;;;;;9.50;34.56;102146.94;3599521;39;20059;-81
2021/04/02 08:48:31;;;;;;;7.82;3.47;;;;;;;9.54;34.82;102154.00;3606774;39;20102;-83
2021/04/02 08:51:04;;;;;;;5.60;3.50;;;;;;;9.53;34.10;102141.31;3606701;39;20063;-81
2021/04/02 08:53:42;;;;;;;5.38;3.40;;;;;;;9.62;34.56;102143.47;3606593;39;20118;-80
2021/04/02 08:56:19;;;;;;;4.47;2.80;;;;;;;9.63;34.40;102145.22;3597941;39;20060;-81
2021/04/02 08:58:54;;;;;;;6.35;3.63;;;;;;;9.64;34.05;102147.84;3598035;39;20147;-81
2021/04/02 09:01:32;;;;;;;6.13;3.80;;;;;;;9.63;34.20;102140.63;3598120;39;20099;-80
2021/04/02 09:04:15;;;;;;;7.10;3.58;;;;;;;9.66;34.09;102139.56;3607288;39;20296;-78
2021/04/02 09:06:52;;;;;;;6.53;3.70;;;;;;;9.66;34.15;102139.56;3615805;39;20059;-79
2021/04/02 09:09:21;;;;;;;5.22;3.42;;;;;;;9.70;34.07;102146.63;3625146;39;20071;-81
2021/04/02 09:11:54;;;;;;;5.85;3.42;;;;;;;9.69;33.95;102144.88;3626087;39;20158;-82
2021/04/02 09:14:23;;;;;;;8.27;4.18;;;;;;;9.70;34.16;102146.63;3616384;39;20486;-81
2021/04/02 09:16:57;;;;;;;5.53;3.40;;;;;;;9.72;34.41;102153.75;3597744;39;20083;-78
2021/04/02 09:19:27;;;;;;;5.53;2.88;;;;;;;9.72;34.00;102156.47;3611468;39;20075;-79
2021/04/02 09:21:56;;;;;;;4.78;2.65;;;;;;;9.72;34.00;102167.41;3627993;39;20147;-79
2021/04/02 09:24:24;;;;;;;5.50;2.90;;;;;;;9.72;34.12;102152.88;3604810;39;20146;-78
2021/04/02 09:26:54;;;;;;;5.55;3.30;;;;;;;9.74;34.15;102159.13;3618128;39;20142;-78
2021/04/02 09:29:22;;;;;;;7.22;3.45;;;;;;;9.73;33.90;102162.81;3626969;39;20095;-78
2021/04/02 09:31:52;;;;;;;5.13;3.33;;;;;;;9.73;33.97;102160.09;3628633;39;20059;-78
2021/04/02 09:34:20;;;;;;;5.88;3.40;;;;;;;9.70;33.68;102152.09;3627328;39;20063;-79
2021/04/02 09:36:51;;;;;;;6.18;3.50;;;;;;;9.71;33.66;102154.72;3627469;39;20070;-79
2021/04/02 09:39:26;;;;;;;4.45;2.85;;;;;;;9.70;33.94;102155.72;3608830;39;20138;-79
2021/04/02 09:42:05;;;;;;;7.38;3.42;;;;;;;9.68;33.99;102154.00;3607718;39;20365;-79
2021/04/02 09:44:36;;;;;;;6.72;3.45;;;;;;;9.66;33.50;102155.94;3599230;39;20091;-79
2021/04/02 09:47:09;;;;;;;;;;;;;;;9.37;34.54;102153.19;3617406;39;20059;-78
2021/04/02 09:49:38;;;;;;;6.03;3.63;;;;;;;9.57;33.91;102140.13;3607479;39;20273;-79
2021/04/02 09:52:10;;;;;;;4.93;3.40;;;;;;;9.59;33.70;102147.25;3598989;39;20052;-79
2021/04/02 09:54:46;;;;;;;5.85;3.60;;;;;;;9.58;33.85;102155.53;3617308;39;20074;-79
2021/04/02 09:57:16;;;;;;;8.40;3.90;;;;;;;9.55;34.01;102156.59;3607761;39;20460;-79
2021/04/02 09:59:56;;;;;;;6.40;3.60;;;;;;;9.55;34.42;102137.47;3621696;39;20301;-80
2021/04/02 10:02:27;;;;;;;9.50;5.60;;;;;;;9.53;33.97;102150.38;3627576;39;20062;-79
2021/04/02 10:04:57;;;;;;;8.73;5.00;;;;;;;9.57;34.12;102141.00;3627564;39;20074;-80
2021/04/02 10:07:32;;;;;;;10.13;5.57;;;;;;;9.58;33.99;102140.03;3627732;39;20109;-80
2021/04/02 10:09:59;;;;;;;10.50;5.72;;;;;;;9.58;34.02;102137.31;3607405;39;20164;-79
2021/04/02 10:12:28;;;;;;;11.13;6.28;;;;;;;9.61;33.93;102141.72;3598947;39;20060;-80
2021/04/02 10:14:58;;;;;;;10.52;7.47;;;;;;;9.61;34.10;102136.25;3599396;39;20079;-79
2021/04/02 10:17:36;;;;;;;10.50;6.82;;;;;;;9.64;34.22;102136.91;3617009;39;20395;-79
2021/04/02 10:20:06;;;;;;;9.45;5.57;;;;;;;9.66;34.05;102143.16;3616616;39;20076;-79
2021/04/02 10:22:35;;;;;;;9.32;5.45;;;;;;;9.68;34.46;102146.72;3598805;39;20150;-80
2021/04/02 10:25:06;;;;;;;7.35;5.45;;;;;;;9.70;34.26;102138.44;3612661;39;20168;-78
2021/04/02 10:27:33;;;;;;;8.45;5.82;;;;;;;9.71;34.21;102145.66;3625674;39;20070;-82
2021/04/02 10:30:01;;;;;;;14.80;8.77;;;;;;;9.72;34.09;102145.56;3618160;39;20495;-78
2021/04/02 10:32:29;;;;;;;15.50;8.52;;;;;;;9.73;33.94;102135.50;3627433;39;20169;-78
2021/04/02 10:34:57;;;;;;;15.25;9.13;;;;;;;9.74;33.97;102131.78;3623516;39;20083;-76
2021/04/02 10:37:24;;;;;;;17.40;10.52;;;;;;;9.73;34.20;102132.75;3624982;39;20075;-77
2021/04/02 10:39:52;;;;;;;19.90;12.93;;;;;;;9.75;33.92;102128.97;3611888;39;20083;-78
2021/04/02 10:42:20;;;;;;;19.48;12.23;;;;;;;9.73;34.02;102119.97;3612983;39;20077;-77
2021/04/02 10:44:47;;;;;;;18.77;12.27;;;;;;;9.73;34.20;102125.44;3610829;39;20186;-77
2021/04/02 10:47:15;;;;;;;18.17;12.40;;;;;;;9.75;34.07;102128.09;3623005;39;20090;-78
2021/04/02 10:49:42;;;;;;;16.48;10.27;;;;;;;9.74;34.03;102124.47;3621098;39;20069;-80
2021/04/02 10:52:10;;;;;;;18.90;12.35;;;;;;;9.76;34.11;102133.47;3614807;39;20078;-78
2021/04/02 10:54:41;;;;;;;18.55;11.65;;;;;;;9.80;34.01;102136.00;3616599;39;20298;-79
2021/04/02 10:57:10;;;;;;;18.17;11.05;;;;;;;9.84;34.37;102132.97;3616382;39;20484;-78
2021/04/02 10:59:38;;;;;;;20.00;12.60;;;;;;;9.87;34.31;102124.59;3626177;39;20158;-79
2021/04/02 11:02:13;;;;;;;18.15;11.60;;;;;;;9.91;34.19;102126.16;3620508;39;20152;-77
2021/04/02 11:04:44;;;;;;;14.60;9.05;;;;;;;9.95;34.19;102132.31;3616677;39;20154;-76
2021/04/02 11:07:12;;;;;;;12.85;7.78;;;;;;;10.02;34.09;102130.94;3625090;39;20469;-79
2021/04/02 11:09:43;;;;;;;12.05;7.50;;;;;;;10.06;33.92;102132.47;3627837;39;20073;-75
2021/04/02 11:12:11;;;;;;;11.90;7.30;;;;;;;10.08;34.11;102130.53;3619889;39;20078;-76
2021/04/02 11:14:39;;;;;;;11.13;6.50;;;;;;;10.11;33.89;102130.34;3625674;39;20171;-76
2021/04/02 11:17:07;;;;;;;11.05;6.00;;;;;;;10.13;33.95;102132.00;3622351;39;20067;-76
2021/04/02 11:19:34;;;;;;;10.32;6.28;;;;;;;10.15;33.89;102143.72;3610251;39;20102;-76
2021/04/02 11:22:05;;;;;;;8.75;5.60;;;;;;;10.19;33.85;102141.69;3591188;39;20094;-75
2021/04/02 11:24:34;;;;;;;9.68;5.75;;;;;;;10.21;33.60;102128.75;3622698;39;20162;-76
2021/04/02 11:27:02;;;;;;;11.32;6.72;;;;;;;10.25;33.51;102129.44;3617099;39;20062;-76
2021/04/02 11:29:30;;;;;;;14.32;8.80;;;;;;;10.26;33.55;102129.34;3618029;39;20109;-78
2021/04/02 11:31:59;;;;;;;17.40;10.60;;;;;;;10.26;33.49;102125.75;3622031;39;20395;-78
2021/04/02 11:34:27;;;;;;;16.38;11.10;;;;;;;10.25;33.50;102124.84;3626603;39;20070;-78
2021/04/02 11:36:56;;;;;;;15.93;10.90;;;;;;;10.27;33.48;102124.75;3608955;39;20095;-76
2021/04/02 11:39:28;;;;;;;19.80;12.07;;;;;;;10.27;33.91;102117.44;3623258;39;20478;-76
2021/04/02 11:41:56;;;;;;;18.73;12.15;;;;;;;10.24;33.64;102125.84;3614822;39;20071;-77
2021/04/02 11:44:24;;;;;;;18.13;11.98;;;;;;;10.24;33.59;102142.25;3620152;39;20118;-77